Time;durP1;ratioP1;P1;durP2;ratioP2;P2;SDS_P1;SDS_P2;PMS_P1;PMS_P2;Temp;Humidity;BMP_temperature;BMP_pressure;BME280_temperature;BME280_humidity;BME280_pressure;Samples;Min_cycle;Max_cycle;Signal;HPM_P1;HPM_P2
2021/04/12 00:00:04;;;;;;;0.52;0.52;;;3.50;99.90;;;;;;4973363;28;20322;-83
2021/04/12 00:02:36;;;;;;;0.50;0.50;;;3.40;99.90;;;;;;4967118;28;20223;-83
2021/04/12 00:05:19;;;;;;;0.60;0.60;;;3.40;99.90;;;;;;4972526;28;20206;-83
2021/04/12 00:07:52;;;;;;;0.60;0.60;;;3.40;99.90;;;;;;4973220;28;20319;-84
2021/04/12 00:10:23;;;;;;;0.50;0.50;;;3.40;99.90;;;;;;4972965;28;20243;-83
2021/04/12 00:12:54;;;;;;;0.50;0.50;;;3.30;99.90;;;;;;4973081;28;20216;-84
2021/04/12 00:15:27;;;;;;;0.60;0.60;;;3.40;99.90;;;;;;4972856;28;20303;-83
2021/04/12 00:17:57;;;;;;;0.50;0.50;;;3.30;99.90;;;;;;4972870;28;20202;-83
2021/04/12 00:20:31;;;;;;;0.57;0.57;;;3.30;99.90;;;;;;4972576;28;20670;-83
2021/04/12 00:23:03;;;;;;;0.57;0.57;;;3.40;99.90;;;;;;4972784;28;20203;-83
2021/04/12 00:25:35;;;;;;;0.52;0.52;;;3.30;99.90;;;;;;4972729;28;20215;-83
2021/04/12 00:28:07;;;;;;;0.50;0.50;;;3.30;99.90;;;;;;4971972;28;20673;-83
2021/04/12 00:30:36;;;;;;;0.57;0.57;;;3.30;99.90;;;;;;4972932;28;20642;-83
2021/04/12 00:33:09;;;;;;;0.60;0.60;;;3.30;99.90;;;;;;4973627;28;20214;-85
2021/04/12 00:35:41;;;;;;;0.60;0.60;;;3.30;99.90;;;;;;4972812;28;20281;-84
2021/04/12 00:38:12;;;;;;;0.60;0.60;;;3.30;99.90;;;;;;4972639;28;20211;-85
2021/04/12 00:40:46;;;;;;;0.60;0.60;;;3.20;99.90;;;;;;4972786;28;20245;-85
2021/04/12 00:43:20;;;;;;;0.60;0.60;;;3.20;99.90;;;;;;4972957;28;20605;-84
2021/04/12 00:46:22;;;;;;;0.60;0.60;;;3.20;99.90;;;;;;4973182;28;20257;-84
2021/04/12 00:49:02;;;;;;;0.50;0.50;;;3.10;99.90;;;;;;4972742;28;20206;-85
2021/04/12 00:51:40;;;;;;;0.52;0.52;;;3.10;99.90;;;;;;4972300;28;20237;-85
2021/04/12 00:54:26;;;;;;;0.60;0.60;;;3.10;99.90;;;;;;4972294;28;20211;-85
2021/04/12 00:56:57;;;;;;;0.60;0.60;;;3.10;99.90;;;;;;4969626;28;20215;-85
2021/04/12 00:59:35;;;;;;;0.60;0.60;;;3.10;99.90;;;;;;4972492;28;20199;-84
2021/04/12 01:02:13;;;;;;;0.60;0.60;;;3.10;99.90;;;;;;4972357;28;20227;-84
2021/04/12 01:04:59;;;;;;;0.55;0.55;;;3.10;99.90;;;;;;4972111;28;20402;-84
2021/04/12 01:07:58;;;;;;;0.60;0.60;;;3.10;99.90;;;;;;4977390;28;20676;-86
2021/04/12 01:10:48;;;;;;;0.60;0.60;;;3.10;99.90;;;;;;4974094;28;20431;-86
2021/04/12 01:13:36;;;;;;;0.60;0.60;;;3.00;99.90;;;;;;4972083;28;20210;-85
2021/04/12 01:16:18;;;;;;;0.55;0.55;;;3.00;99.90;;;;;;4972090;28;20214;-85
2021/04/12 01:19:12;;;;;;;0.60;0.60;;;3.00;99.90;;;;;;4972108;28;20210;-84
2021/04/12 01:22:40;;;;;;;0.60;0.60;;;3.00;99.90;;;;;;4971690;28;20231;-85
2021/04/12 01:26:02;;;;;;;0.60;0.60;;;3.00;99.90;;;;;;4971589;28;20203;-85
2021/04/12 01:29:13;;;;;;;0.60;0.60;;;2.90;99.90;;;;;;4971561;28;20211;-85
2021/04/12 01:32:12;;;;;;;0.50;0.50;;;2.90;99.90;;;;;;4971547;28;20281;-85
2021/04/12 01:35:08;;;;;;;0.50;0.50;;;2.90;99.90;;;;;;4971513;28;20207;-85
2021/04/12 01:37:45;;;;;;;0.60;0.60;;;2.90;99.90;;;;;;4971565;28;20214;-85
2021/04/12 01:40:19;;;;;;;0.60;0.60;;;2.80;99.90;;;;;;4972390;28;20206;-87
2021/04/12 01:42:58;;;;;;;0.60;0.60;;;2.80;99.90;;;;;;4971983;28;20230;-85
2021/04/12 01:45:36;;;;;;;0.60;0.60;;;2.80;99.90;;;;;;4971339;28;20525;-84
2021/04/12 01:48:16;;;;;;;0.60;0.60;;;2.80;99.90;;;;;;4971552;28;20210;-85
2021/04/12 01:51:08;;;;;;;0.60;0.60;;;2.70;99.90;;;;;;4971191;28;20211;-85
2021/04/12 01:53:51;;;;;;;0.50;0.50;;;2.60;99.90;;;;;;4971438;28;20211;-85
2021/04/12 01:56:34;;;;;;;0.60;0.60;;;2.60;99.90;;;;;;4971365;28;20210;-85
2021/04/12 01:59:13;;;;;;;0.50;0.50;;;2.60;99.90;;;;;;4971204;28;20207;-85
2021/04/12 02:01:58;;;;;;;0.60;0.60;;;2.50;99.90;;;;;;4970281;28;20470;-85
2021/04/12 02:04:38;;;;;;;0.50;0.50;;;2.50;99.90;;;;;;4967162;28;20207;-84
2021/04/12 02:07:23;;;;;;;0.60;0.60;;;2.50;99.90;;;;;;4970900;28;20206;-85
2021/04/12 02:10:07;;;;;;;0.60;0.60;;;2.40;99.90;;;;;;4970815;28;20326;-84
2021/04/12 02:12:49;;;;;;;0.60;0.60;;;2.40;99.90;;;;;;4971016;28;20251;-84
2021/04/12 02:15:23;;;;;;;0.50;0.50;;;2.40;99.90;;;;;;4971160;28;20210;-85
2021/04/12 02:18:00;;;;;;;0.60;0.60;;;2.40;99.90;;;;;;4970931;28;20210;-84
2021/04/12 02:20:37;;;;;;;0.60;0.60;;;2.40;99.90;;;;;;4970676;28;20213;-85
2021/04/12 02:23:30;;;;;;;0.60;0.60;;;2.30;99.90;;;;;;4971011;28;20261;-84
2021/04/12 02:26:17;;;;;;;0.50;0.50;;;2.70;99.90;;;;;;4970701;28;20261;-84
2021/04/12 02:28:57;;;;;;;0.60;0.60;;;2.30;99.90;;;;;;4970603;28;20283;-85
2021/04/12 02:31:39;;;;;;;0.52;0.52;;;2.30;99.90;;;;;;4970403;28;20202;-85
2021/04/12 02:34:10;;;;;;;0.60;0.60;;;2.20;99.90;;;;;;4970646;28;20202;-85
2021/04/12 02:36:57;;;;;;;0.50;0.50;;;2.20;99.90;;;;;;4970531;28;20206;-85
2021/04/12 02:39:38;;;;;;;0.60;0.60;;;2.20;99.90;;;;;;4970406;28;20207;-85
2021/04/12 02:42:12;;;;;;;0.55;0.55;;;2.20;99.90;;;;;;4970502;28;20226;-85
2021/04/12 02:45:03;;;;;;;0.60;0.60;;;2.20;99.90;;;;;;4970579;28;20283;-85
2021/04/12 02:47:56;;;;;;;0.60;0.60;;;2.20;99.90;;;;;;4967436;28;20207;-85
2021/04/12 02:50:39;;;;;;;0.50;0.50;;;2.10;99.90;;;;;;4970402;28;20689;-85
2021/04/12 02:53:18;;;;;;;0.60;0.60;;;2.20;99.90;;;;;;4970553;28;20214;-86
2021/04/12 02:56:09;;;;;;;0.57;0.57;;;2.10;99.90;;;;;;4970846;28;20288;-85
2021/04/12 02:59:23;;;;;;;0.60;0.60;;;2.10;99.90;;;;;;4970269;28;20218;-85
2021/04/12 03:02:25;;;;;;;0.55;0.55;;;2.10;99.90;;;;;;4971321;28;20252;-86
2021/04/12 03:05:00;;;;;;;0.60;0.60;;;2.10;99.90;;;;;;4970628;28;20234;-85
2021/04/12 03:08:08;;;;;;;0.57;0.57;;;2.10;99.90;;;;;;4970683;28;20210;-86
2021/04/12 03:10:57;;;;;;;0.60;0.60;;;2.00;99.90;;;;;;4970416;28;20257;-85
2021/04/12 03:13:56;;;;;;;0.50;0.50;;;2.00;99.90;;;;;;4969969;28;20207;-86
2021/04/12 03:17:10;;;;;;;0.60;0.60;;;2.00;99.90;;;;;;4970164;28;20207;-85
2021/04/12 03:19:59;;;;;;;0.50;0.50;;;2.00;99.90;;;;;;4924281;28;20211;-85
2021/04/12 03:22:40;;;;;;;0.50;0.50;;;2.00;99.90;;;;;;4969994;28;20238;-84
2021/04/12 03:25:27;;;;;;;0.50;0.50;;;2.00;99.90;;;;;;4970067;28;20841;-85
2021/04/12 03:28:07;;;;;;;0.50;0.50;;;2.00;99.90;;;;;;4970019;28;20207;-85
2021/04/12 03:30:49;;;;;;;0.60;0.60;;;1.90;99.90;;;;;;4970298;28;20206;-85
2021/04/12 03:33:25;;;;;;;0.60;0.60;;;1.90;99.90;;;;;;4971244;28;20690;-85
2021/04/12 03:36:13;;;;;;;0.60;0.60;;;2.00;99.90;;;;;;5049700;22;20246;-84
2021/04/12 03:38:45;;;;;;;0.50;0.50;;;1.90;99.90;;;;;;4984157;28;20202;-85
2021/04/12 03:41:48;;;;;;;0.60;0.60;;;1.90;99.90;;;;;;4989464;28;20222;-84
2021/04/12 03:44:26;;;;;;;0.50;0.50;;;1.90;99.90;;;;;;4989871;28;20233;-85
2021/04/12 03:47:19;;;;;;;0.60;0.60;;;1.90;99.90;;;;;;4989880;28;20303;-85
2021/04/12 03:50:06;;;;;;;0.57;0.57;;;1.80;99.90;;;;;;4990124;28;20210;-84
2021/04/12 03:52:59;;;;;;;0.60;0.60;;;1.80;99.90;;;;;;5006831;28;20225;-84
2021/04/12 03:55:58;;;;;;;0.60;0.60;;;1.80;99.90;;;;;;5009382;28;20296;-85
2021/04/12 03:59:07;;;;;;;0.55;0.55;;;1.70;99.90;;;;;;5009129;28;20210;-84
2021/04/12 04:02:06;;;;;;;0.60;0.60;;;1.70;99.90;;;;;;5013823;28;20226;-86
2021/04/12 04:04:46;;;;;;;0.50;0.50;;;1.70;99.90;;;;;;5010951;28;20212;-86
2021/04/12 04:07:58;;;;;;;0.60;0.60;;;1.60;99.90;;;;;;5011986;28;20224;-85
2021/04/12 04:10:57;;;;;;;0.60;0.60;;;1.60;99.90;;;;;;5012447;28;20275;-85
2021/04/12 04:13:35;;;;;;;0.50;0.50;;;1.50;99.90;;;;;;5012419;28;20585;-85
2021/04/12 04:16:16;;;;;;;0.52;0.52;;;1.50;99.90;;;;;;5012920;28;20849;-86
2021/04/12 04:18:53;;;;;;;0.50;0.50;;;1.50;99.90;;;;;;5012756;28;20209;-85
2021/04/12 04:21:42;;;;;;;0.57;0.57;;;1.50;99.90;;;;;;5012537;28;20316;-85
2021/04/12 04:24:35;;;;;;;0.50;0.50;;;1.40;99.90;;;;;;5012443;28;20232;-85
2021/04/12 04:27:28;;;;;;;0.50;0.50;;;1.40;99.90;;;;;;5012696;28;20209;-85
2021/04/12 04:30:26;;;;;;;0.60;0.60;;;1.40;99.90;;;;;;5012187;28;20205;-85
2021/04/12 04:33:29;;;;;;;0.60;0.60;;;1.40;99.90;;;;;;4970655;28;20201;-85
2021/04/12 04:36:20;;;;;;;0.57;0.57;;;1.40;99.90;;;;;;4968210;28;20637;-85
2021/04/12 04:39:06;;;;;;;0.50;0.50;;;1.30;99.90;;;;;;4993020;28;20238;-86
2021/04/12 04:42:02;;;;;;;0.60;0.60;;;1.30;99.90;;;;;;4992676;28;20230;-84
2021/04/12 04:44:41;;;;;;;0.50;0.50;;;1.30;99.90;;;;;;4992159;28;20210;-84
2021/04/12 04:47:33;;;;;;;0.60;0.60;;;1.30;99.90;;;;;;4973083;28;20237;-84
2021/04/12 04:50:17;;;;;;;0.50;0.50;;;1.20;99.90;;;;;;4973317;28;20625;-83
2021/04/12 04:52:59;;;;;;;0.57;0.57;;;1.20;99.90;;;;;;4972796;28;20219;-83
2021/04/12 04:55:39;;;;;;;0.57;0.57;;;1.20;99.90;;;;;;4972897;28;20211;-84
2021/04/12 04:58:17;;;;;;;0.50;0.50;;;1.90;99.90;;;;;;4972600;28;20277;-84
2021/04/12 05:00:57;;;;;;;0.50;0.50;;;1.20;99.90;;;;;;4972977;28;20203;-84
2021/04/12 05:03:53;;;;;;;0.50;0.50;;;1.20;99.90;;;;;;4972523;28;20469;-84
2021/04/12 05:07:00;;;;;;;0.60;0.60;;;1.90;99.90;;;;;;4972839;28;20203;-84
2021/04/12 05:09:36;;;;;;;0.57;0.57;;;1.20;99.90;;;;;;4975108;28;20219;-84
2021/04/12 05:12:43;;;;;;;0.57;0.57;;;1.20;99.90;;;;;;4972745;28;20202;-84
2021/04/12 05:15:25;;;;;;;0.50;0.50;;;1.20;99.90;;;;;;4971932;28;20672;-85
2021/04/12 05:18:18;;;;;;;0.55;0.55;;;1.50;99.90;;;;;;4972395;28;20214;-85
2021/04/12 05:21:04;;;;;;;0.52;0.52;;;1.10;99.90;;;;;;4972557;28;20585;-84
2021/04/12 05:23:55;;;;;;;0.50;0.50;;;1.20;99.90;;;;;;4964342;28;20575;-84
2021/04/12 05:26:39;;;;;;;0.60;0.60;;;1.20;99.90;;;;;;4972262;28;20677;-84
2021/04/12 05:29:28;;;;;;;0.60;0.60;;;1.30;99.90;;;;;;4972581;28;20214;-85
2021/04/12 05:32:27;;;;;;;0.60;0.60;;;1.40;99.90;;;;;;4972238;28;20695;-84
2021/04/12 05:35:12;;;;;;;0.55;0.55;;;1.40;99.90;;;;;;4973122;28;20233;-84
2021/04/12 05:38:03;;;;;;;0.50;0.50;;;1.40;99.90;;;;;;4991462;28;20206;-84
2021/04/12 05:40:48;;;;;;;0.50;0.50;;;1.40;99.90;;;;;;4991347;28;20269;-84
2021/04/12 05:43:24;;;;;;;0.50;0.50;;;1.40;99.90;;;;;;4991545;28;20567;-84
2021/04/12 05:46:38;;;;;;;0.50;0.50;;;1.50;99.90;;;;;;4991393;28;20210;-84
2021/04/12 05:49:43;;;;;;;0.50;0.50;;;1.60;99.90;;;;;;4917769;29;20204;-84
2021/04/12 05:52:43;;;;;;;0.60;0.60;;;1.80;99.90;;;;;;5000494;28;20658;-84
2021/04/12 05:55:20;;;;;;;0.60;0.60;;;1.90;99.90;;;;;;5001212;28;20281;-86
2021/04/12 05:58:14;;;;;;;0.60;0.60;;;1.90;99.90;;;;;;5005708;28;20688;-85
2021/04/12 06:00:53;;;;;;;0.60;0.60;;;2.30;99.90;;;;;;5010779;28;20657;-85
2021/04/12 06:03:37;;;;;;;0.55;0.55;;;2.90;99.90;;;;;;5000804;28;20190;-85
2021/04/12 06:06:43;;;;;;;0.60;0.60;;;3.00;99.90;;;;;;5000687;28;20212;-86
2021/04/12 06:09:43;;;;;;;0.50;0.50;;;2.60;99.90;;;;;;4999298;28;20202;-85
2021/04/12 06:12:49;;;;;;;0.50;0.50;;;2.40;99.90;;;;;;5006301;28;20263;-85
2021/04/12 06:15:41;;;;;;;0.60;0.60;;;2.40;99.90;;;;;;5000147;28;20201;-86
2021/04/12 06:18:46;;;;;;;0.60;0.60;;;2.30;99.90;;;;;;4997026;28;20213;-85
2021/04/12 06:21:46;;;;;;;0.60;0.60;;;2.30;99.90;;;;;;4995113;28;20486;-85
2021/04/12 06:24:47;;;;;;;0.60;0.60;;;2.30;99.90;;;;;;4988802;28;20206;-85
2021/04/12 06:27:51;;;;;;;0.60;0.60;;;2.30;99.90;;;;;;4988094;28;20233;-85
2021/04/12 06:30:54;;;;;;;0.50;0.50;;;2.30;99.90;;;;;;4984871;28;20206;-85
2021/04/12 06:33:56;;;;;;;0.60;0.60;;;2.30;99.90;;;;;;4888468;29;20277;-85
2021/04/12 06:36:45;;;;;;;0.60;0.60;;;2.20;99.90;;;;;;4889518;29;20229;-85
2021/04/12 06:39:43;;;;;;;0.50;0.50;;;2.40;99.90;;;;;;4974680;28;20584;-86
2021/04/12 06:42:27;;;;;;;0.57;0.57;;;2.50;99.90;;;;;;4987326;28;20433;-86
2021/04/12 06:45:29;;;;;;;0.50;0.50;;;2.50;99.90;;;;;;4991739;28;20221;-87
2021/04/12 06:48:34;;;;;;;0.60;0.60;;;2.60;99.90;;;;;;4993719;28;20584;-87
2021/04/12 06:51:37;;;;;;;0.50;0.50;;;2.60;99.90;;;;;;4915618;29;20233;-87
2021/04/12 06:54:42;;;;;;;0.57;0.57;;;2.50;99.90;;;;;;4921557;28;20212;-81
2021/04/12 06:57:46;;;;;;;0.55;0.55;;;2.50;99.90;;;;;;5009002;28;20190;-89
2021/04/12 07:00:56;;;;;;;0.60;0.60;;;2.60;99.90;;;;;;5006378;28;20229;-88
2021/04/12 07:11:54;;;;;;;0.60;0.60;;;2.70;99.90;;;;;;4754155;23;20242;-86
2021/04/12 07:15:16;;;;;;;;;;;;;;;;;;;;;
2021/04/12 07:21:48;;;;;;;0.50;0.50;;;3.00;99.90;;;;;;4988031;28;20217;-86
2021/04/12 07:24:55;;;;;;;0.60;0.60;;;3.00;99.90;;;;;;4984495;28;20568;-85
2021/04/12 07:42:21;;;;;;;0.60;0.60;;;3.20;99.90;;;;;;4999825;28;20230;-84
2021/04/12 07:45:29;;;;;;;0.52;0.52;;;3.20;99.90;;;;;;4999653;28;20207;-86
2021/04/12 07:48:36;;;;;;;0.60;0.60;;;3.40;99.90;;;;;;4975468;28;20206;-89
2021/04/12 07:51:42;;;;;;;0.52;0.52;;;3.40;99.90;;;;;;4997510;28;20228;-89
2021/04/12 07:54:46;;;;;;;0.60;0.60;;;3.50;99.90;;;;;;4994025;28;20216;-89
2021/04/12 07:57:49;;;;;;;0.52;0.52;;;3.60;99.90;;;;;;4995893;28;20214;-89
2021/04/12 08:01:01;;;;;;;0.50;0.50;;;3.70;99.90;;;;;;4996255;28;20256;-88
2021/04/12 08:04:05;;;;;;;0.60;0.60;;;3.70;99.90;;;;;;4997103;28;20262;-89
2021/04/12 08:07:08;;;;;;;0.60;0.60;;;3.60;99.90;;;;;;4995033;28;20687;-89
2021/04/12 08:10:06;;;;;;;0.60;0.60;;;3.80;99.90;;;;;;4995974;28;20646;-89
2021/04/12 08:13:18;;;;;;;0.60;0.60;;;3.90;99.90;;;;;;4995586;28;20257;-89
2021/04/12 08:16:19;;;;;;;0.60;0.60;;;4.00;99.90;;;;;;4974697;28;20202;-88
2021/04/12 08:19:27;;;;;;;0.57;0.57;;;4.00;99.90;;;;;;4993711;28;20210;-89
2021/04/12 08:22:45;;;;;;;0.60;0.60;;;4.20;99.90;;;;;;4962445;28;20230;-89
2021/04/12 08:25:59;;;;;;;0.50;0.50;;;4.40;99.90;;;;;;5000814;28;20701;-88
2021/04/12 08:29:02;;;;;;;0.50;0.50;;;4.50;99.90;;;;;;4976504;28;20210;-88
2021/04/12 08:32:06;;;;;;;0.60;0.60;;;4.60;99.90;;;;;;4997188;28;20206;-88
2021/04/12 08:35:26;;;;;;;0.60;0.60;;;4.60;99.90;;;;;;4997925;28;20688;-89
2021/04/12 08:38:37;;;;;;;0.60;0.60;;;4.80;99.90;;;;;;4997614;28;20321;-88
2021/04/12 08:41:38;;;;;;;0.60;0.60;;;5.00;99.90;;;;;;4990624;28;20238;-89
2021/04/12 08:44:26;;;;;;;0.50;0.50;;;5.20;99.90;;;;;;4997347;28;20205;-89
2021/04/12 08:47:17;;;;;;;0.50;0.50;;;5.20;99.90;;;;;;4995644;28;20207;-89
2021/04/12 08:50:01;;;;;;;0.60;0.60;;;5.00;99.90;;;;;;4994530;28;20210;-84
2021/04/12 08:52:55;;;;;;;0.50;0.50;;;5.10;99.90;;;;;;4992170;28;20226;-88
2021/04/12 08:56:03;;;;;;;0.60;0.60;;;5.30;99.90;;;;;;4994989;28;20210;-89
2021/04/12 08:59:00;;;;;;;0.60;0.60;;;5.50;99.90;;;;;;4988675;28;20206;-82
2021/04/12 09:01:54;;;;;;;0.50;0.50;;;5.70;99.90;;;;;;4991191;28;20230;-84
2021/04/12 09:04:52;;;;;;;0.60;0.60;;;5.60;99.90;;;;;;4991240;28;20229;-83
2021/04/12 09:07:48;;;;;;;0.60;0.60;;;5.40;99.90;;;;;;4991448;28;20613;-82
2021/04/12 09:10:45;;;;;;;0.50;0.50;;;5.50;99.90;;;;;;4952244;28;20677;-90
2021/04/12 09:13:55;;;;;;;0.60;0.60;;;5.50;99.90;;;;;;4974974;28;20207;-90
2021/04/12 09:16:57;;;;;;;0.60;0.60;;;5.40;99.90;;;;;;4971859;28;20306;-84
2021/04/12 09:20:07;;;;;;;0.60;0.60;;;5.30;99.90;;;;;;4959734;28;20218;-86
2021/04/12 09:23:18;;;;;;;0.60;0.60;;;5.40;99.90;;;;;;4934806;28;20238;-86
2021/04/12 09:26:22;;;;;;;0.60;0.60;;;5.70;99.90;;;;;;5001494;28;20206;-90
2021/04/12 09:29:24;;;;;;;0.60;0.60;;;6.00;99.90;;;;;;5002327;28;20241;-85
2021/04/12 09:32:29;;;;;;;0.60;0.60;;;6.00;99.90;;;;;;5003497;28;20229;-85
2021/04/12 09:35:32;;;;;;;0.60;0.60;;;6.00;99.90;;;;;;5012038;28;20222;-85
2021/04/12 09:38:47;;;;;;;0.57;0.57;;;6.00;99.90;;;;;;5014177;28;20205;-84
2021/04/12 09:41:49;;;;;;;0.60;0.60;;;6.50;99.90;;;;;;5010234;28;20230;-83
2021/04/12 09:44:59;;;;;;;0.60;0.60;;;6.10;99.90;;;;;;5008994;28;20221;-85
2021/04/12 09:47:57;;;;;;;0.60;0.60;;;6.30;99.90;;;;;;5011721;28;20221;-85
2021/04/12 09:51:27;;;;;;;0.60;0.60;;;5.90;99.90;;;;;;5011307;28;20202;-84
2021/04/12 09:54:35;;;;;;;0.60;0.60;;;8.50;99.90;;;;;;4931454;29;20329;-85
2021/04/12 09:57:39;;;;;;;0.60;0.60;;;6.50;99.90;;;;;;4930156;29;20281;-84
2021/04/12 10:00:32;;;;;;;0.60;0.60;;;7.30;99.90;;;;;;5007772;28;20225;-84
2021/04/12 10:03:35;;;;;;;0.60;0.60;;;7.00;99.90;;;;;;5006834;28;20222;-84
2021/04/12 10:06:52;;;;;;;0.57;0.57;;;5.10;99.90;;;;;;5005764;28;20221;-84
2021/04/12 10:12:13;;;;;;;0.50;0.50;;;6.60;99.90;;;;;;5291908;22;20221;-84
2021/04/12 10:14:51;;;;;;;0.60;0.60;;;5.90;99.90;;;;;;5035506;22;20246;-85
2021/04/12 10:17:25;;;;;;;0.60;0.60;;;8.20;99.90;;;;;;4980108;28;20643;-84
2021/04/12 10:20:15;;;;;;;;;;;;;;;;;;;;;
2021/04/12 10:22:52;;;;;;;0.60;0.60;;;10.50;99.90;;;;;;5042041;23;20321;-83
2021/04/12 10:25:27;;;;;;;0.60;0.60;;;6.10;99.90;;;;;;4996763;28;20202;-85
2021/04/12 10:28:15;;;;;;;0.60;0.60;;;6.30;99.90;;;;;;4993817;28;20207;-84
2021/04/12 10:30:49;;;;;;;0.60;0.60;;;6.90;99.90;;;;;;4988213;28;20214;-83
2021/04/12 10:33:23;;;;;;;0.50;0.50;;;7.20;99.90;;;;;;4984756;28;20230;-83
2021/04/12 10:35:53;;;;;;;0.57;0.57;;;7.60;99.90;;;;;;4984430;28;20199;-85
2021/04/12 10:38:24;;;;;;;0.60;0.60;;;7.70;99.90;;;;;;4980924;28;20279;-84
2021/04/12 10:41:00;;;;;;;0.60;0.60;;;7.90;99.90;;;;;;4994799;28;20167;-84
2021/04/12 10:43:46;;;;;;;0.60;0.60;;;7.80;99.90;;;;;;4996842;28;20230;-83
2021/04/12 10:49:15;;;;;;;0.55;0.55;;;7.40;99.90;;;;;;5402495;23;20237;-84
2021/04/12 10:51:59;;;;;;;0.60;0.60;;;6.20;99.90;;;;;;5035783;28;20206;-84
2021/04/12 10:55:19;;;;;;;0.60;0.60;;;6.40;99.90;;;;;;5024707;28;20524;-84
2021/04/12 10:58:01;;;;;;;0.50;0.50;;;6.80;99.90;;;;;;4979816;28;20214;-85
2021/04/12 11:00:48;;;;;;;0.60;0.60;;;7.30;99.90;;;;;;5014781;28;20292;-85
2021/04/12 11:03:44;;;;;;;0.60;0.60;;;9.30;99.90;;;;;;4999844;28;20246;-83
2021/04/12 11:06:41;;;;;;;0.50;0.50;;;7.00;99.90;;;;;;5010031;28;20501;-84
2021/04/12 11:09:46;;;;;;;0.60;0.60;;;6.90;99.90;;;;;;5009938;28;20210;-83
2021/04/12 11:12:23;;;;;;;0.60;0.60;;;6.70;99.90;;;;;;4910325;29;20209;-83
2021/04/12 11:14:57;;;;;;;0.60;0.60;;;6.50;99.90;;;;;;4914866;29;20593;-84
2021/04/12 11:17:37;;;;;;;0.60;0.60;;;6.50;99.90;;;;;;4953226;28;20257;-86
2021/04/12 11:20:10;;;;;;;0.60;0.60;;;6.50;99.90;;;;;;4977540;28;20684;-85
2021/04/12 11:22:55;;;;;;;0.50;0.50;;;6.50;99.90;;;;;;4974339;28;20219;-85
2021/04/12 11:25:28;;;;;;;0.60;0.60;;;6.60;99.90;;;;;;4974580;28;20202;-84
2021/04/12 11:28:09;;;;;;;0.60;0.60;;;6.60;99.90;;;;;;4974770;28;20551;-85
2021/04/12 11:30:45;;;;;;;0.60;0.60;;;6.50;99.90;;;;;;4974471;28;20211;-85
2021/04/12 11:33:51;;;;;;;0.60;0.60;;;6.60;99.90;;;;;;4974674;28;20198;-84
2021/04/12 11:36:24;;;;;;;0.50;0.50;;;7.00;99.90;;;;;;5018845;23;20603;-85
2021/04/12 11:39:04;;;;;;;0.60;0.60;;;7.30;99.90;;;;;;4998327;28;20210;-88
2021/04/12 11:41:35;;;;;;;0.60;0.60;;;8.00;99.90;;;;;;4998827;28;20697;-87
2021/04/12 11:44:13;;;;;;;0.60;0.60;;;8.20;99.90;;;;;;4998784;28;20198;-86
2021/04/12 11:46:57;;;;;;;0.60;0.60;;;7.90;99.90;;;;;;5000787;28;20210;-85
2021/04/12 11:49:30;;;;;;;0.60;0.60;;;7.50;99.90;;;;;;4995022;28;20308;-87
2021/04/12 11:52:06;;;;;;;0.60;0.60;;;7.30;99.90;;;;;;4997872;28;20214;-86
2021/04/12 11:54:39;;;;;;;0.60;0.60;;;7.40;99.90;;;;;;5002634;28;20248;-84
2021/04/12 11:57:21;;;;;;;0.60;0.60;;;8.00;99.90;;;;;;5012850;28;20201;-85
2021/04/12 11:59:52;;;;;;;0.60;0.60;;;8.60;99.90;;;;;;5014238;28;20209;-86
2021/04/12 12:02:32;;;;;;;0.60;0.60;;;8.80;99.90;;;;;;5015884;28;20218;-85
2021/04/12 12:05:08;;;;;;;0.50;0.50;;;8.50;99.90;;;;;;5208645;22;20218;-83
2021/04/12 12:07:37;;;;;;;0.60;0.60;;;7.70;99.90;;;;;;4997107;28;20221;-84
2021/04/12 12:10:29;;;;;;;0.60;0.60;;;7.60;99.90;;;;;;5001453;28;20213;-85
2021/04/12 12:15:40;;;;;;;0.60;0.60;;;7.20;99.90;;;;;;5344953;22;20353;-83
2021/04/12 12:18:13;;;;;;;0.60;0.60;;;8.00;99.90;;;;;;5000358;28;20286;-83
2021/04/12 12:20:49;;;;;;;0.60;0.60;;;8.80;99.90;;;;;;4999599;28;20217;-84
2021/04/12 12:23:51;;;;;;;0.50;0.50;;;9.10;99.90;;;;;;4999402;28;20257;-83
2021/04/12 12:26:27;;;;;;;0.60;0.60;;;9.90;99.90;;;;;;4986292;28;20210;-84
2021/04/12 12:29:08;;;;;;;0.60;0.60;;;9.40;99.90;;;;;;4997982;28;20216;-83
2021/04/12 12:31:40;;;;;;;0.60;0.60;;;8.70;99.90;;;;;;4998308;28;20210;-84
2021/04/12 12:34:17;;;;;;;0.60;0.60;;;8.40;99.90;;;;;;4997743;28;20214;-84
2021/04/12 12:36:51;;;;;;;0.60;0.60;;;8.10;99.90;;;;;;4996147;28;20229;-84
2021/04/12 12:39:30;;;;;;;0.60;0.60;;;7.80;99.90;;;;;;4996229;28;20241;-85
2021/04/12 12:42:00;;;;;;;0.60;0.60;;;7.60;99.90;;;;;;4993477;28;20222;-84
2021/04/12 12:44:28;;;;;;;0.60;0.60;;;7.50;99.90;;;;;;4993623;28;20596;-85
2021/04/12 12:46:55;;;;;;;0.60;0.60;;;8.10;99.90;;;;;;4992805;28;20735;-84
2021/04/12 12:49:26;;;;;;;0.60;0.60;;;8.60;99.90;;;;;;4992991;28;20202;-84
2021/04/12 12:51:56;;;;;;;0.60;0.60;;;8.40;99.90;;;;;;5009232;28;20256;-86
2021/04/12 12:54:28;;;;;;;0.60;0.60;;;10.00;99.90;;;;;;5013279;28;20259;-85
2021/04/12 12:57:04;;;;;;;0.60;0.60;;;7.50;99.90;;;;;;5012599;28;20216;-84
2021/04/12 12:59:36;;;;;;;0.60;0.60;;;7.10;99.90;;;;;;5018804;28;20205;-84
2021/04/12 13:02:19;;;;;;;0.60;0.60;;;7.00;99.90;;;;;;5027358;22;20234;-84
2021/04/12 13:04:54;;;;;;;0.60;0.60;;;6.90;99.90;;;;;;4994832;28;20210;-84
2021/04/12 13:07:22;;;;;;;0.60;0.60;;;7.20;99.90;;;;;;4993964;28;20209;-84
2021/04/12 13:09:58;;;;;;;0.50;0.50;;;7.10;99.90;;;;;;4991936;28;20214;-84
2021/04/12 13:12:30;;;;;;;0.60;0.60;;;6.80;99.90;;;;;;4990518;28;20213;-85
2021/04/12 13:15:10;;;;;;;0.60;0.60;;;6.80;99.90;;;;;;4992436;28;20214;-85
2021/04/12 13:17:38;;;;;;;0.60;0.60;;;6.80;99.90;;;;;;4991966;28;20448;-82
2021/04/12 13:20:08;;;;;;;0.60;0.60;;;7.20;99.90;;;;;;4992961;28;20689;-83
2021/04/12 13:22:39;;;;;;;0.60;0.60;;;6.80;99.90;;;;;;4992179;28;20226;-83
2021/04/12 13:25:24;;;;;;;0.60;0.60;;;6.80;99.90;;;;;;4992213;28;20605;-83
2021/04/12 13:27:56;;;;;;;0.60;0.60;;;6.50;99.90;;;;;;4991409;28;20939;-79
2021/04/12 13:30:25;;;;;;;0.60;0.60;;;6.20;99.90;;;;;;4992103;28;20480;-79
2021/04/12 13:32:58;;;;;;;0.60;0.60;;;5.90;99.90;;;;;;4991822;28;20206;-79
2021/04/12 13:35:27;;;;;;;0.60;0.60;;;5.60;99.90;;;;;;4991710;28;20560;-79
2021/04/12 13:38:06;;;;;;;0.60;0.60;;;5.50;99.90;;;;;;4991920;28;20206;-80
2021/04/12 13:40:40;;;;;;;0.50;0.50;;;5.50;99.90;;;;;;4991964;28;20669;-79
2021/04/12 13:43:08;;;;;;;0.60;0.60;;;5.40;99.90;;;;;;4991796;28;20739;-80
2021/04/12 13:45:36;;;;;;;0.60;0.60;;;5.60;99.90;;;;;;4991789;28;20206;-80
2021/04/12 13:48:07;;;;;;;0.60;0.60;;;5.70;99.90;;;;;;4991878;28;20214;-80
2021/04/12 13:50:36;;;;;;;0.60;0.60;;;6.50;99.90;;;;;;4992450;28;20210;-80
2021/04/12 13:53:07;;;;;;;0.60;0.60;;;7.40;99.90;;;;;;5009336;28;20201;-80
2021/04/12 13:55:40;;;;;;;0.60;0.60;;;7.70;99.90;;;;;;5009375;28;20210;-78
2021/04/12 13:58:09;;;;;;;0.60;0.60;;;7.50;99.90;;;;;;5011241;28;20221;-79
2021/04/12 14:00:42;;;;;;;0.60;0.60;;;7.30;99.90;;;;;;5010846;28;20313;-80
2021/04/12 14:03:15;;;;;;;0.60;0.60;;;7.20;99.90;;;;;;5009525;28;20233;-80
2021/04/12 14:05:51;;;;;;;0.60;0.60;;;7.00;99.90;;;;;;5010885;28;20216;-80
2021/04/12 14:08:22;;;;;;;0.60;0.60;;;7.10;99.90;;;;;;5011513;28;20201;-81
2021/04/12 14:10:55;;;;;;;0.60;0.60;;;7.10;99.90;;;;;;5010888;28;20214;-81
2021/04/12 14:13:25;;;;;;;0.60;0.60;;;7.10;99.90;;;;;;5011151;28;20198;-81
2021/04/12 14:15:55;;;;;;;0.60;0.60;;;7.00;99.90;;;;;;5010564;28;20205;-85
2021/04/12 14:18:32;;;;;;;0.60;0.60;;;7.00;99.90;;;;;;5012849;28;20723;-86
2021/04/12 14:21:06;;;;;;;0.50;0.50;;;7.00;99.90;;;;;;5011372;28;20210;-81
2021/04/12 14:23:36;;;;;;;0.52;0.52;;;6.90;99.90;;;;;;5011140;28;20222;-82
2021/04/12 14:26:07;;;;;;;0.60;0.60;;;7.00;99.90;;;;;;5009316;28;20217;-82
2021/04/12 14:28:41;;;;;;;0.60;0.60;;;6.80;99.90;;;;;;5009156;28;20236;-82
2021/04/12 14:31:16;;;;;;;0.60;0.60;;;6.80;99.90;;;;;;5010686;28;20213;-82
2021/04/12 14:33:45;;;;;;;0.60;0.60;;;7.00;99.90;;;;;;5010478;28;20201;-82
2021/04/12 14:36:14;;;;;;;0.60;0.60;;;7.50;99.90;;;;;;5010909;28;20209;-82
2021/04/12 14:38:43;;;;;;;0.60;0.60;;;8.00;99.90;;;;;;5010346;28;20259;-82
2021/04/12 14:41:15;;;;;;;0.60;0.60;;;8.80;99.90;;;;;;5010488;28;20209;-82
2021/04/12 14:43:43;;;;;;;0.60;0.60;;;9.00;99.90;;;;;;5010668;28;20591;-83
2021/04/12 14:46:13;;;;;;;0.60;0.60;;;8.90;99.90;;;;;;5010786;28;20602;-82
2021/04/12 14:48:48;;;;;;;0.60;0.60;;;8.90;99.90;;;;;;5009986;28;20228;-83
2021/04/12 14:51:20;;;;;;;0.60;0.60;;;9.30;99.90;;;;;;5010666;28;20718;-82
2021/04/12 14:53:51;;;;;;;0.60;0.60;;;9.30;99.90;;;;;;5010264;28;20205;-82
2021/04/12 14:56:20;;;;;;;0.60;0.60;;;9.20;99.90;;;;;;5010436;28;20240;-83
2021/04/12 14:58:50;;;;;;;0.60;0.60;;;9.20;99.90;;;;;;5010609;28;20252;-83
2021/04/12 15:01:20;;;;;;;0.60;0.60;;;9.50;99.90;;;;;;5010567;28;20344;-82
2021/04/12 15:03:50;;;;;;;0.60;0.60;;;9.20;99.90;;;;;;5010392;28;20307;-82
2021/04/12 15:06:22;;;;;;;0.60;0.60;;;8.90;99.90;;;;;;5010487;28;20208;-82
2021/04/12 15:08:54;;;;;;;0.60;0.60;;;8.60;99.90;;;;;;5010418;28;20206;-82
2021/04/12 15:11:30;;;;;;;0.60;0.60;;;8.40;99.90;;;;;;5008751;28;20292;-82
2021/04/12 15:13:59;;;;;;;0.50;0.50;;;8.20;99.90;;;;;;5005272;28;20866;-83